Time;durP1;ratioP1;P1;durP2;ratioP2;P2;SDS_P1;SDS_P2;PMS_P1;PMS_P2;Temp;Humidity;BMP_temperature;BMP_pressure;BME280_temperature;BME280_humidity;BME280_pressure;Samples;Min_cycle;Max_cycle;Signal;HPM_P1;HPM_P2
2022/08/14 00:00:11;;;;;;;15.77;4.50;;;22.90;92.10;;;;;;5133967;27;20448;-70
2022/08/14 00:02:37;;;;;;;6.50;4.07;;;22.90;92.60;;;;;;5134612;27;20039;-70
2022/08/14 00:05:05;;;;;;;7.43;4.23;;;22.90;92.70;;;;;;5134161;27;20043;-70
2022/08/14 00:07:31;;;;;;;7.30;4.27;;;22.90;92.70;;;;;;5134346;27;20410;-70
2022/08/14 00:09:57;;;;;;;8.23;4.43;;;22.90;92.70;;;;;;5134056;27;20051;-70
2022/08/14 00:12:24;;;;;;;5.83;4.33;;;22.80;93.00;;;;;;5134286;27;20049;-70
2022/08/14 00:14:50;;;;;;;7.57;4.60;;;22.80;93.10;;;;;;5134054;27;20047;-70
2022/08/14 00:17:16;;;;;;;7.23;4.80;;;22.70;93.20;;;;;;5134070;27;20043;-70
2022/08/14 00:19:42;;;;;;;7.03;5.03;;;22.70;93.40;;;;;;5134134;27;20047;-70
2022/08/14 00:22:07;;;;;;;8.33;4.40;;;22.70;93.70;;;;;;5133840;27;20048;-70
2022/08/14 00:24:33;;;;;;;7.10;4.77;;;22.70;94.10;;;;;;5133859;27;20066;-70
2022/08/14 00:26:59;;;;;;;13.03;5.40;;;22.70;94.50;;;;;;5115334;27;20043;-70
2022/08/14 00:29:24;;;;;;;9.07;5.10;;;22.60;94.10;;;;;;5133919;27;20054;-70
2022/08/14 00:31:50;;;;;;;7.73;4.80;;;22.60;94.50;;;;;;5133723;27;20047;-70
2022/08/14 00:34:16;;;;;;;8.93;5.20;;;22.60;94.50;;;;;;5133918;27;20126;-70
2022/08/14 00:36:42;;;;;;;7.43;4.57;;;22.60;94.70;;;;;;5134012;27;20095;-70
2022/08/14 00:39:10;;;;;;;11.10;5.30;;;22.60;94.60;;;;;;5133509;27;20046;-70
2022/08/14 00:41:36;;;;;;;9.13;5.20;;;22.60;94.80;;;;;;5133644;27;20050;-70
2022/08/14 00:44:02;;;;;;;7.27;5.47;;;22.50;94.80;;;;;;5133494;27;20357;-70
2022/08/14 00:46:28;;;;;;;8.67;4.80;;;22.60;94.90;;;;;;5098625;27;20043;-70
2022/08/14 00:48:53;;;;;;;9.77;5.80;;;22.50;95.00;;;;;;5133095;27;20053;-70
2022/08/14 00:51:20;;;;;;;13.13;6.10;;;22.50;95.20;;;;;;5133501;27;20099;-70
2022/08/14 00:53:49;;;;;;;11.13;5.93;;;22.50;95.30;;;;;;5133680;27;20043;-70
2022/08/14 00:56:16;;;;;;;8.67;5.67;;;22.50;95.60;;;;;;5115614;27;20086;-70
2022/08/14 00:58:42;;;;;;;9.33;4.93;;;22.50;95.60;;;;;;5133682;27;20441;-70
2022/08/14 01:01:10;;;;;;;10.47;5.17;;;22.40;95.70;;;;;;5133303;27;20047;-70
2022/08/14 01:03:41;;;;;;;9.93;4.83;;;22.40;96.10;;;;;;5133517;27;20398;-70
2022/08/14 01:06:08;;;;;;;6.80;5.20;;;22.40;96.10;;;;;;5133271;27;20054;-70
2022/08/14 01:08:36;;;;;;;9.40;5.30;;;22.30;96.40;;;;;;5133500;27;20056;-70
2022/08/14 01:11:02;;;;;;;7.93;5.50;;;22.30;96.70;;;;;;5132888;28;20502;-70
2022/08/14 01:13:38;;;;;;;6.37;5.20;;;22.30;96.70;;;;;;5115555;28;20402;-70
2022/08/14 01:16:07;;;;;;;8.50;5.50;;;22.30;96.90;;;;;;5133439;28;20043;-70
2022/08/14 01:21:30;;;;;;;;;;;22.20;97.40;;;;;;5133712;28;20091;-70
2022/08/14 01:23:56;;;;;;;9.57;5.50;;;22.20;97.60;;;;;;5133221;28;19930;-70
2022/08/14 01:26:24;;;;;;;9.97;5.47;;;22.10;97.70;;;;;;5133443;28;20058;-70
2022/08/14 01:28:56;;;;;;;8.00;5.37;;;22.10;97.70;;;;;;5133257;28;20122;-70
2022/08/14 01:31:30;;;;;;;8.07;5.43;;;22.10;98.00;;;;;;5115248;28;20047;-70
2022/08/14 01:33:59;;;;;;;8.80;5.43;;;22.10;98.40;;;;;;5132934;28;20376;-70
2022/08/14 01:36:26;;;;;;;7.50;5.00;;;22.00;98.50;;;;;;5133301;28;20043;-70
2022/08/14 01:38:56;;;;;;;9.10;5.07;;;22.00;98.90;;;;;;5133097;28;20527;-70
2022/08/14 01:41:24;;;;;;;10.03;5.83;;;21.90;99.20;;;;;;5133186;28;20050;-70
2022/08/14 01:44:00;;;;;;;9.23;6.67;;;21.90;99.30;;;;;;5133300;28;20043;-70
2022/08/14 01:46:30;;;;;;;11.47;6.27;;;21.80;99.60;;;;;;5132833;28;20521;-70
2022/08/14 01:48:57;;;;;;;8.57;6.20;;;21.80;99.80;;;;;;5132923;28;20040;-71
2022/08/14 01:51:25;;;;;;;11.23;6.43;;;21.80;99.90;;;;;;5133080;28;20061;-70
2022/08/14 01:53:56;;;;;;;7.90;6.17;;;21.70;99.90;;;;;;5135789;27;20046;-70
2022/08/14 01:56:43;;;;;;;8.03;5.97;;;21.80;99.90;;;;;;5136960;27;20054;-70
2022/08/14 01:59:14;;;;;;;7.97;6.33;;;21.70;99.90;;;;;;5136756;27;20049;-71
2022/08/14 02:01:42;;;;;;;8.60;6.43;;;21.70;99.90;;;;;;5136928;27;20043;-70
2022/08/14 02:04:08;;;;;;;8.87;6.47;;;21.70;99.90;;;;;;5118511;27;20051;-70
2022/08/14 02:06:36;;;;;;;9.60;6.97;;;21.70;99.90;;;;;;5118793;27;20085;-70
2022/08/14 02:09:04;;;;;;;8.53;6.47;;;21.60;99.90;;;;;;5136571;27;20151;-71
2022/08/14 02:11:30;;;;;;;11.97;6.87;;;21.60;99.90;;;;;;5136629;27;20483;-71
2022/08/14 02:14:03;;;;;;;10.77;6.73;;;21.60;99.90;;;;;;5136690;27;20158;-70
2022/08/14 02:16:32;;;;;;;12.57;6.63;;;21.50;99.90;;;;;;5136587;27;20038;-70
2022/08/14 02:19:00;;;;;;;13.17;7.37;;;21.50;99.90;;;;;;5136446;27;20082;-70
2022/08/14 02:21:30;;;;;;;7.40;6.50;;;21.50;99.90;;;;;;5136652;27;20069;-70
2022/08/14 02:23:58;;;;;;;11.33;7.40;;;21.50;99.90;;;;;;5136693;27;20088;-70
2022/08/14 02:26:28;;;;;;;10.30;7.10;;;21.50;99.90;;;;;;5136445;27;20055;-71
2022/08/14 02:29:06;;;;;;;10.57;7.03;;;21.50;99.90;;;;;;5136028;27;20552;-70
2022/08/14 02:31:35;;;;;;;10.00;7.37;;;21.40;99.90;;;;;;5136532;27;20047;-70
2022/08/14 02:34:09;;;;;;;11.93;8.00;;;21.50;99.90;;;;;;5136200;27;20035;-76
2022/08/14 02:36:39;;;;;;;8.27;6.80;;;21.40;99.90;;;;;;5136475;27;20129;-70
2022/08/14 02:39:09;;;;;;;8.80;7.90;;;21.40;99.90;;;;;;5135835;27;20043;-71
2022/08/14 02:41:36;;;;;;;8.70;7.40;;;21.40;99.90;;;;;;5136111;27;20047;-71
2022/08/14 02:44:04;;;;;;;10.93;7.70;;;21.40;99.90;;;;;;5136049;27;20051;-70
2022/08/14 02:46:30;;;;;;;11.63;7.20;;;21.30;99.90;;;;;;5136044;27;20596;-71
2022/08/14 02:48:56;;;;;;;11.07;7.90;;;21.30;99.90;;;;;;5135978;27;20078;-70
2022/08/14 02:51:22;;;;;;;11.00;7.60;;;21.20;99.90;;;;;;5135698;27;20068;-70
2022/08/14 02:53:48;;;;;;;10.00;7.70;;;21.20;99.90;;;;;;5135837;27;20043;-70
2022/08/14 02:56:16;;;;;;;13.93;8.00;;;21.20;99.90;;;;;;5135551;27;20051;-70
2022/08/14 02:58:47;;;;;;;12.27;7.33;;;21.20;99.90;;;;;;5135702;27;20043;-70
2022/08/14 03:01:18;;;;;;;12.63;8.23;;;21.20;99.90;;;;;;5100444;27;20486;-71
2022/08/14 03:03:47;;;;;;;12.83;8.83;;;21.20;99.90;;;;;;5117234;27;20047;-70
2022/08/14 03:06:15;;;;;;;11.53;7.83;;;21.20;99.90;;;;;;5135058;27;20483;-70
2022/08/14 03:08:42;;;;;;;10.30;8.47;;;21.10;99.90;;;;;;5135550;27;20095;-70
2022/08/14 03:11:10;;;;;;;10.13;7.80;;;21.10;99.90;;;;;;5135289;27;20051;-71
2022/08/14 03:13:39;;;;;;;9.73;8.73;;;21.10;99.90;;;;;;5135463;27;20054;-70
2022/08/14 03:16:08;;;;;;;9.77;8.77;;;21.10;99.90;;;;;;5135451;27;20055;-70
2022/08/14 03:18:34;;;;;;;11.30;8.20;;;21.00;99.90;;;;;;5117078;27;20093;-70
2022/08/14 03:21:06;;;;;;;12.03;8.50;;;21.00;99.90;;;;;;5135443;27;20048;-70
2022/08/14 03:23:35;;;;;;;12.53;8.47;;;21.00;99.90;;;;;;5116760;27;20051;-70
2022/08/14 03:26:02;;;;;;;13.80;9.00;;;20.90;99.90;;;;;;5135232;27;20063;-70
2022/08/14 03:28:29;;;;;;;9.57;8.00;;;20.90;99.90;;;;;;5135015;27;20054;-70
2022/08/14 03:30:56;;;;;;;12.47;8.53;;;20.90;99.90;;;;;;5135179;27;20046;-70
2022/08/14 03:33:22;;;;;;;12.20;8.70;;;20.80;99.90;;;;;;5134769;27;20043;-71
2022/08/14 03:35:49;;;;;;;10.33;9.00;;;20.80;99.90;;;;;;5135150;27;20043;-70
2022/08/14 03:38:17;;;;;;;12.27;8.70;;;20.80;99.90;;;;;;5134378;27;20459;-70
2022/08/14 03:40:45;;;;;;;12.77;9.70;;;20.80;99.90;;;;;;5134656;27;20505;-70
2022/08/14 03:43:12;;;;;;;10.70;9.27;;;20.70;99.90;;;;;;5134743;27;20051;-71
2022/08/14 03:45:39;;;;;;;9.33;8.43;;;20.70;99.90;;;;;;5134871;27;20047;-70
2022/08/14 03:48:18;;;;;;;10.90;9.33;;;20.60;99.90;;;;;;5134949;27;20130;-70
2022/08/14 03:50:50;;;;;;;13.23;9.20;;;20.70;99.90;;;;;;5134975;27;20039;-70
2022/08/14 03:53:18;;;;;;;13.73;9.63;;;20.70;99.90;;;;;;5134562;27;20087;-70
2022/08/14 03:55:46;;;;;;;12.23;9.20;;;20.60;99.90;;;;;;5134677;27;20083;-71
2022/08/14 03:58:14;;;;;;;13.00;9.70;;;20.60;99.90;;;;;;5134429;27;20091;-75
2022/08/14 04:00:40;;;;;;;10.13;8.60;;;20.60;99.90;;;;;;5116252;27;20043;-71
2022/08/14 04:03:08;;;;;;;11.13;9.93;;;20.60;99.90;;;;;;5134480;27;20043;-71
2022/08/14 04:05:36;;;;;;;12.30;10.03;;;20.50;99.90;;;;;;5134193;27;20453;-71
2022/08/14 04:08:02;;;;;;;14.20;9.97;;;20.50;99.90;;;;;;5134373;27;20039;-70
2022/08/14 04:10:28;;;;;;;11.27;9.40;;;20.50;99.90;;;;;;5134102;27;20058;-71
2022/08/14 04:12:58;;;;;;;12.33;9.43;;;20.50;99.90;;;;;;5134554;27;20051;-71
2022/08/14 04:15:25;;;;;;;10.63;9.53;;;20.50;99.90;;;;;;5133393;27;20470;-71
2022/08/14 04:17:55;;;;;;;14.27;8.90;;;20.50;99.90;;;;;;5134138;27;20054;-70
2022/08/14 04:20:21;;;;;;;12.10;9.47;;;20.50;99.90;;;;;;5133916;27;20047;-71
2022/08/14 04:22:49;;;;;;;10.33;9.23;;;20.40;99.90;;;;;;5134100;27;20126;-70
2022/08/14 04:25:15;;;;;;;11.47;9.90;;;20.40;99.90;;;;;;5133995;27;20055;-75
2022/08/14 04:27:41;;;;;;;12.87;10.23;;;20.50;99.90;;;;;;5134079;27;20051;-71
2022/08/14 04:30:08;;;;;;;12.13;9.60;;;20.40;99.90;;;;;;5134114;27;20475;-70
2022/08/14 04:32:33;;;;;;;14.73;10.23;;;20.40;99.90;;;;;;5115562;27;20406;-71
2022/08/14 04:35:03;;;;;;;12.83;9.47;;;20.40;99.90;;;;;;5133915;27;20144;-71
2022/08/14 04:45:42;;;;;;;13.38;9.88;;;20.40;99.90;;;;;;5133916;27;20112;-70
2022/08/14 04:48:16;;;;;;;13.07;10.07;;;20.40;99.90;;;;;;5133698;27;20475;-70
2022/08/14 04:50:50;;;;;;;11.68;9.98;;;20.40;99.90;;;;;;5133367;27;20093;-70
2022/08/14 04:53:18;;;;;;;13.57;9.43;;;20.50;99.90;;;;;;5133748;27;20126;-70
2022/08/14 04:55:47;;;;;;;10.97;9.70;;;20.40;99.90;;;;;;5133600;27;20051;-70
2022/08/14 04:58:14;;;;;;;11.67;9.83;;;20.50;99.90;;;;;;5133622;27;20039;-70
2022/08/14 05:00:40;;;;;;;15.03;9.90;;;20.50;99.90;;;;;;5133365;27;20187;-71
2022/08/14 05:03:07;;;;;;;11.50;9.63;;;20.50;99.90;;;;;;5133539;27;20402;-70
2022/08/14 05:05:33;;;;;;;11.20;9.53;;;20.50;99.90;;;;;;5114949;28;20047;-71
2022/08/14 05:08:07;;;;;;;11.43;9.53;;;20.50;99.90;;;;;;5133438;27;20032;-71
2022/08/14 05:10:35;;;;;;;13.97;9.57;;;20.50;99.90;;;;;;5133107;27;20069;-71
2022/08/14 05:13:01;;;;;;;11.30;9.50;;;20.60;99.90;;;;;;5133448;28;20438;-70
2022/08/14 05:15:29;;;;;;;11.83;9.50;;;20.60;99.90;;;;;;5133133;28;20191;-70
2022/08/14 05:17:55;;;;;;;13.27;9.37;;;20.60;99.90;;;;;;5133508;28;20043;-70
2022/08/14 05:20:21;;;;;;;11.13;10.03;;;20.70;99.90;;;;;;5133661;28;20043;-70
2022/08/14 05:22:46;;;;;;;10.27;9.33;;;20.70;99.90;;;;;;5097678;28;20047;-70
2022/08/14 05:25:12;;;;;;;10.87;9.77;;;20.80;99.90;;;;;;5133260;28;20059;-70
2022/08/14 05:27:38;;;;;;;11.10;9.70;;;20.80;99.90;;;;;;5135211;27;20047;-70
2022/08/14 05:30:05;;;;;;;10.10;9.10;;;20.80;99.90;;;;;;5137550;27;20130;-70
2022/08/14 05:32:31;;;;;;;10.90;9.07;;;20.90;99.90;;;;;;5137152;27;20043;-71
2022/08/14 05:34:58;;;;;;;11.33;9.83;;;20.90;99.90;;;;;;5137398;27;20043;-70
2022/08/14 05:37:25;;;;;;;10.90;9.80;;;21.00;99.90;;;;;;5137323;27;20047;-70
2022/08/14 05:39:51;;;;;;;14.03;9.53;;;21.10;99.90;;;;;;5137508;27;20043;-71
2022/08/14 05:42:16;;;;;;;10.53;9.43;;;21.10;99.90;;;;;;5137435;27;20339;-70
2022/08/14 05:44:42;;;;;;;11.03;9.87;;;21.20;99.90;;;;;;5137092;27;20118;-71
2022/08/14 05:47:08;;;;;;;10.07;9.03;;;21.30;99.90;;;;;;5118877;27;20076;-71
2022/08/14 05:49:33;;;;;;;10.60;9.47;;;21.40;99.90;;;;;;5136868;27;20086;-71
2022/08/14 05:52:02;;;;;;;12.27;9.23;;;21.50;99.90;;;;;;5137152;27;20043;-71
2022/08/14 05:54:29;;;;;;;11.67;8.57;;;21.70;99.90;;;;;;5118498;27;20043;-72
2022/08/14 05:56:55;;;;;;;10.70;8.93;;;22.40;99.90;;;;;;5136945;27;20054;-71
2022/08/14 05:59:21;;;;;;;10.53;9.13;;;23.50;99.90;;;;;;5136985;27;20035;-71
2022/08/14 06:01:46;;;;;;;9.87;8.77;;;25.40;95.00;;;;;;5136573;27;20043;-71
2022/08/14 06:04:12;;;;;;;11.63;8.43;;;25.60;98.80;;;;;;5137017;27;20095;-71
2022/08/14 06:06:38;;;;;;;11.33;8.60;;;26.50;95.10;;;;;;5118043;27;20352;-71
2022/08/14 06:09:04;;;;;;;12.03;8.00;;;27.30;91.30;;;;;;5137006;27;20046;-71
2022/08/14 06:11:29;;;;;;;10.30;8.17;;;27.80;86.10;;;;;;5136391;27;20196;-76
2022/08/14 06:13:55;;;;;;;9.40;7.20;;;28.20;78.60;;;;;;5118568;27;20054;-71
2022/08/14 06:16:21;;;;;;;9.87;7.27;;;28.80;75.80;;;;;;5136620;27;20040;-71
2022/08/14 06:18:47;;;;;;;9.93;7.23;;;29.40;71.80;;;;;;5136224;27;20124;-71
2022/08/14 06:21:14;;;;;;;10.57;7.13;;;29.70;66.80;;;;;;5136674;27;20054;-71
2022/08/14 06:23:40;;;;;;;9.10;7.30;;;30.00;64.40;;;;;;5136171;27;20053;-71
2022/08/14 06:26:06;;;;;;;8.03;6.80;;;30.30;62.40;;;;;;5135936;27;20054;-71
2022/08/14 06:28:32;;;;;;;8.27;6.97;;;30.60;60.70;;;;;;5136226;27;20100;-76
2022/08/14 06:30:57;;;;;;;7.77;6.93;;;30.80;59.30;;;;;;5136222;27;20396;-71
2022/08/14 06:33:24;;;;;;;8.40;6.90;;;30.70;57.80;;;;;;5136392;27;20050;-71
2022/08/14 06:35:49;;;;;;;8.97;6.97;;;31.00;57.00;;;;;;5136093;27;20111;-71
2022/08/14 06:38:20;;;;;;;7.65;6.07;;;31.40;53.30;;;;;;5135387;27;20043;-71
2022/08/14 06:40:48;;;;;;;7.55;6.10;;;31.70;54.50;;;;;;5135919;27;20043;-72
2022/08/14 06:43:15;;;;;;;9.80;5.65;;;32.40;53.90;;;;;;5136299;27;20051;-70
2022/08/14 06:45:44;;;;;;;7.35;5.78;;;32.50;52.90;;;;;;5135822;27;20096;-69
2022/08/14 06:48:16;;;;;;;8.38;6.40;;;32.60;51.50;;;;;;5117979;27;20087;-69
2022/08/14 06:50:43;;;;;;;9.43;6.22;;;32.70;50.50;;;;;;5135695;27;20073;-70
2022/08/14 06:53:10;;;;;;;12.20;5.85;;;32.70;50.70;;;;;;5135969;27;20054;-70
2022/08/14 06:55:36;;;;;;;9.85;6.32;;;33.00;50.50;;;;;;5135649;27;20502;-71
2022/08/14 06:58:02;;;;;;;7.22;6.38;;;33.30;49.60;;;;;;5135724;27;20383;-70
2022/08/14 07:00:28;;;;;;;8.88;6.10;;;33.50;49.10;;;;;;5135833;27;20047;-70
2022/08/14 07:05:45;;;;;;;7.28;6.32;;;34.20;48.10;;;;;;5135600;27;20047;-70
2022/08/14 07:08:16;;;;;;;10.07;6.28;;;34.30;46.90;;;;;;5135688;27;20134;-70
2022/08/14 07:10:43;;;;;;;9.13;5.88;;;34.50;46.50;;;;;;5135256;27;20099;-70
2022/08/14 07:13:13;;;;;;;10.30;6.05;;;34.40;46.30;;;;;;5135755;27;20047;-71
2022/08/14 07:15:44;;;;;;;7.38;5.90;;;34.40;46.10;;;;;;5135157;27;20055;-71
2022/08/14 07:18:11;;;;;;;10.35;6.63;;;34.60;46.20;;;;;;5135430;27;20332;-70
2022/08/14 07:20:37;;;;;;;8.40;5.93;;;34.90;45.60;;;;;;5135451;27;20039;-68
2022/08/14 07:23:05;;;;;;;8.27;6.38;;;34.80;45.30;;;;;;5135218;27;20132;-72
2022/08/14 07:25:31;;;;;;;10.05;6.47;;;35.10;44.90;;;;;;5135185;27;20137;-72
2022/08/14 07:27:57;;;;;;;7.30;6.50;;;35.20;44.90;;;;;;5136261;27;20499;-72
2022/08/14 07:30:23;;;;;;;7.13;6.30;;;35.40;47.40;;;;;;5099994;27;20054;-73
2022/08/14 07:32:50;;;;;;;9.95;6.82;;;35.50;44.10;;;;;;5134902;27;20070;-73
2022/08/14 07:35:16;;;;;;;7.57;6.18;;;35.40;43.50;;;;;;5135055;27;20050;-73
2022/08/14 07:37:41;;;;;;;9.63;6.13;;;35.40;44.20;;;;;;5134767;27;20107;-73
2022/08/14 07:40:08;;;;;;;12.60;5.97;;;35.70;43.90;;;;;;5134965;27;20566;-73
2022/08/14 07:42:33;;;;;;;7.40;5.90;;;35.80;43.00;;;;;;5134906;27;20053;-73
2022/08/14 07:44:59;;;;;;;8.70;6.30;;;35.90;42.50;;;;;;5134855;27;20122;-73
2022/08/14 07:47:26;;;;;;;8.65;6.35;;;36.10;42.80;;;;;;5134853;27;20046;-73
2022/08/14 07:50:06;;;;;;;9.15;5.97;;;36.40;42.70;;;;;;5133933;27;20447;-73
2022/08/14 07:52:33;;;;;;;6.80;6.07;;;36.40;41.30;;;;;;5134593;27;20047;-73
2022/08/14 07:54:59;;;;;;;9.68;6.45;;;36.50;42.00;;;;;;5134358;27;20039;-73
2022/08/14 07:57:26;;;;;;;7.72;6.32;;;36.10;42.40;;;;;;5134499;27;20086;-73
2022/08/14 07:59:52;;;;;;;10.98;6.00;;;36.10;42.70;;;;;;5134276;27;20055;-73
2022/08/14 08:02:19;;;;;;;8.40;6.50;;;35.90;42.70;;;;;;5135822;27;20084;-73
2022/08/14 08:04:53;;;;;;;7.75;5.90;;;36.30;42.60;;;;;;5134155;27;20057;-75
2022/08/14 08:07:19;;;;;;;;;;;36.40;42.20;;;;;;5134585;27;20043;-73
2022/08/14 08:09:52;;;;;;;7.50;5.72;;;36.40;42.10;;;;;;5134241;27;20330;-74
2022/08/14 08:12:20;;;;;;;7.47;6.27;;;36.20;42.20;;;;;;5134407;27;20144;-73
2022/08/14 08:14:49;;;;;;;6.65;5.53;;;35.60;43.20;;;;;;5134143;27;20121;-75
2022/08/14 08:17:20;;;;;;;9.23;4.93;;;34.50;44.20;;;;;;5134029;27;20462;-74
2022/08/14 08:19:47;;;;;;;10.07;5.55;;;33.60;45.00;;;;;;5134355;27;20054;-75
2022/08/14 08:22:13;;;;;;;7.13;4.97;;;33.10;45.70;;;;;;5134525;27;20060;-71
2022/08/14 08:24:39;;;;;;;5.97;5.20;;;32.50;46.50;;;;;;5115786;27;20066;-70
2022/08/14 08:27:15;;;;;;;6.38;5.60;;;32.20;47.20;;;;;;5133842;27;20059;-75
2022/08/14 08:29:41;;;;;;;7.75;5.55;;;32.00;48.50;;;;;;5135500;27;20039;-77
2022/08/14 08:32:07;;;;;;;7.13;5.15;;;31.70;48.20;;;;;;5152480;27;20045;-75
2022/08/14 08:34:44;;;;;;;12.05;5.82;;;31.40;48.70;;;;;;5153174;27;20054;-71
2022/08/14 08:37:10;;;;;;;8.55;5.80;;;31.30;49.50;;;;;;5153406;27;20525;-73
2022/08/14 08:39:46;;;;;;;5.65;4.72;;;31.10;49.50;;;;;;5152725;27;20130;-73
2022/08/14 08:42:12;;;;;;;6.78;5.57;;;31.10;50.70;;;;;;5150559;27;20039;-73
2022/08/14 08:44:38;;;;;;;5.88;5.22;;;30.90;50.40;;;;;;5154016;27;20447;-71
2022/08/14 08:47:04;;;;;;;7.15;5.15;;;30.60;50.90;;;;;;5154256;27;20085;-73
2022/08/14 08:49:41;;;;;;;6.20;5.40;;;30.60;51.30;;;;;;5154496;27;20098;-77
2022/08/14 08:52:07;;;;;;;8.32;5.70;;;30.50;51.80;;;;;;5154198;27;20047;-69
2022/08/14 08:54:33;;;;;;;7.63;5.10;;;30.20;51.80;;;;;;5154342;27;20046;-70
2022/08/14 08:56:59;;;;;;;6.75;5.88;;;30.10;52.20;;;;;;5154143;27;20066;-71
2022/08/14 08:59:29;;;;;;;7.70;5.43;;;30.10;52.40;;;;;;5154235;27;20478;-79
2022/08/14 09:02:00;;;;;;;9.10;5.18;;;30.10;52.90;;;;;;5153971;27;20061;-76
2022/08/14 09:04:28;;;;;;;6.82;5.53;;;29.90;52.80;;;;;;5154308;27;20537;-75
2022/08/14 09:06:54;;;;;;;7.47;5.05;;;29.80;53.50;;;;;;5153910;27;20043;-72
2022/08/14 09:09:32;;;;;;;6.97;5.47;;;29.70;54.10;;;;;;5136036;27;20120;-76
2022/08/14 09:11:59;;;;;;;7.25;5.70;;;29.60;54.20;;;;;;5146137;27;20061;-74
2022/08/14 09:14:29;;;;;;;6.68;5.10;;;29.60;54.30;;;;;;5133372;28;20051;-70
2022/08/14 09:16:58;;;;;;;7.15;5.30;;;29.70;54.90;;;;;;5133445;28;20051;-71
2022/08/14 09:19:25;;;;;;;6.28;5.03;;;29.70;54.60;;;;;;5133303;28;20046;-70
2022/08/14 09:21:52;;;;;;;7.40;5.60;;;29.70;54.80;;;;;;5133265;28;20136;-77
2022/08/14 09:24:18;;;;;;;6.38;4.90;;;29.50;54.30;;;;;;5133031;28;20054;-76
2022/08/14 09:26:44;;;;;;;6.32;4.80;;;29.50;55.00;;;;;;5117877;28;20043;-75
2022/08/14 09:29:11;;;;;;;7.05;5.25;;;29.40;55.50;;;;;;5111237;28;20078;-79
2022/08/14 09:31:43;;;;;;;7.57;5.20;;;29.30;55.40;;;;;;5112627;28;20145;-76
2022/08/14 09:34:33;;;;;;;7.28;4.95;;;29.20;55.40;;;;;;5112572;28;20133;-72
2022/08/14 09:37:21;;;;;;;7.32;4.85;;;29.20;55.50;;;;;;5112500;28;20050;-70
2022/08/14 09:40:04;;;;;;;7.30;4.93;;;29.10;56.40;;;;;;5112650;28;20089;-71
2022/08/14 09:43:01;;;;;;;7.43;5.25;;;29.20;57.00;;;;;;5112743;28;20046;-70
2022/08/14 09:45:35;;;;;;;7.72;5.10;;;29.20;56.50;;;;;;5112893;28;20058;-71
2022/08/14 09:48:01;;;;;;;;;;;29.20;57.00;;;;;;5112916;28;20142;-71
2022/08/14 09:50:42;;;;;;;8.77;4.82;;;29.10;56.10;;;;;;5113462;28;19987;-71
2022/08/14 09:53:10;;;;;;;5.63;5.03;;;29.00;56.10;;;;;;5113903;28;20047;-72
2022/08/14 09:55:36;;;;;;;6.70;4.70;;;29.00;56.20;;;;;;5094272;28;20080;-71
2022/08/14 09:58:14;;;;;;;9.10;4.80;;;29.00;56.20;;;;;;5112178;28;20047;-70
2022/08/14 10:00:49;;;;;;;5.00;4.20;;;29.00;56.50;;;;;;5112723;28;20387;-71
2022/08/14 10:03:51;;;;;;;6.78;4.43;;;29.00;56.10;;;;;;5112804;28;20044;-67
2022/08/14 10:06:25;;;;;;;7.30;4.70;;;29.00;55.30;;;;;;5106709;28;20066;-71
2022/08/14 10:08:56;;;;;;;7.03;4.50;;;29.00;55.90;;;;;;5112529;28;20086;-71
2022/08/14 10:11:24;;;;;;;6.53;3.78;;;28.90;55.50;;;;;;5114360;28;20051;-72
2022/08/14 10:13:53;;;;;;;6.80;4.25;;;28.90;55.40;;;;;;5113383;28;20048;-71
2022/08/14 10:16:31;;;;;;;6.97;4.40;;;28.90;55.60;;;;;;5115891;28;20050;-71
2022/08/14 10:19:09;;;;;;;6.03;4.32;;;29.00;55.60;;;;;;5097913;28;20035;-71
2022/08/14 10:21:41;;;;;;;6.43;3.72;;;29.10;54.80;;;;;;5114592;27;20051;-71
2022/08/14 10:24:09;;;;;;;6.22;4.30;;;29.00;55.20;;;;;;5114859;28;20364;-73
2022/08/14 10:26:36;;;;;;;7.57;4.15;;;29.00;55.40;;;;;;5114602;28;20065;-71
2022/08/14 10:29:10;;;;;;;7.00;3.83;;;29.10;55.70;;;;;;5115860;28;20043;-71
2022/08/14 10:31:36;;;;;;;;;;;29.20;55.30;;;;;;5116320;28;20080;-71
2022/08/14 10:34:08;;;;;;;5.22;4.20;;;29.20;54.70;;;;;;5115874;28;19926;-74
2022/08/14 10:36:43;;;;;;;8.00;4.00;;;29.20;54.60;;;;;;5114885;28;20095;-72
2022/08/14 10:39:21;;;;;;;5.78;4.25;;;29.20;54.90;;;;;;5114723;28;20106;-73
2022/08/14 10:41:48;;;;;;;5.43;3.90;;;29.10;54.80;;;;;;5115581;28;20055;-72
2022/08/14 10:44:21;;;;;;;7.50;4.10;;;29.10;56.20;;;;;;5115235;28;20043;-73
2022/08/14 10:46:57;;;;;;;5.55;4.10;;;29.10;55.70;;;;;;5115750;28;20054;-73
2022/08/14 10:49:26;;;;;;;7.07;4.03;;;29.10;55.00;;;;;;5115455;28;20531;-74
2022/08/14 10:52:00;;;;;;;6.03;4.63;;;29.10;55.10;;;;;;5114596;28;20040;-74
2022/08/14 10:54:46;;;;;;;6.32;3.60;;;29.10;54.90;;;;;;5115281;28;20039;-75
2022/08/14 10:57:26;;;;;;;8.43;3.83;;;29.10;54.70;;;;;;5115251;28;20403;-75
2022/08/14 10:59:55;;;;;;;5.20;3.60;;;29.20;54.70;;;;;;5115380;28;20094;-73
2022/08/14 11:02:33;;;;;;;6.35;3.92;;;29.20;54.90;;;;;;5114660;28;20447;-76
2022/08/14 11:05:13;;;;;;;5.97;4.05;;;29.30;54.50;;;;;;5115652;28;20044;-80
2022/08/14 11:07:41;;;;;;;6.75;4.45;;;29.30;55.70;;;;;;5113966;28;20052;-81
2022/08/14 11:10:13;;;;;;;5.78;4.00;;;29.40;55.20;;;;;;5114651;28;20050;-79
2022/08/14 11:12:50;;;;;;;5.28;3.80;;;29.40;54.50;;;;;;5112241;28;20100;-80
2022/08/14 11:15:19;;;;;;;5.45;3.88;;;29.40;54.20;;;;;;5111662;28;20075;-79
2022/08/14 11:17:47;;;;;;;5.78;4.78;;;29.30;54.00;;;;;;5114676;28;20467;-75
2022/08/14 11:20:15;;;;;;;7.22;3.95;;;29.30;54.20;;;;;;5114956;28;20081;-84
2022/08/14 11:22:42;;;;;;;6.03;4.20;;;29.40;54.20;;;;;;5115057;28;20048;-80
2022/08/14 11:25:10;;;;;;;7.03;3.90;;;29.40;54.30;;;;;;5128374;27;20050;-85
2022/08/14 11:27:39;;;;;;;4.70;3.77;;;29.40;53.30;;;;;;5156284;27;20050;-81
2022/08/14 11:30:21;;;;;;;5.20;3.78;;;29.40;53.60;;;;;;5120610;27;20047;-84
2022/08/14 11:32:49;;;;;;;5.63;4.30;;;29.30;54.10;;;;;;5156172;27;20054;-82
2022/08/14 11:35:18;;;;;;;8.25;4.50;;;29.20;54.40;;;;;;5155686;27;20078;-85
2022/08/14 11:37:55;;;;;;;5.75;4.35;;;29.30;54.30;;;;;;5155698;27;20451;-81
2022/08/14 11:40:24;;;;;;;5.53;4.25;;;29.30;54.50;;;;;;5155729;27;20035;-76
2022/08/14 11:42:54;;;;;;;5.72;4.28;;;29.30;54.50;;;;;;5155695;27;20099;-76
2022/08/14 11:45:24;;;;;;;6.65;4.65;;;29.40;54.80;;;;;;5155569;27;20080;-73
2022/08/14 11:47:53;;;;;;;9.23;4.60;;;29.40;54.50;;;;;;5120239;27;20061;-78
2022/08/14 11:50:26;;;;;;;7.25;4.40;;;29.40;54.40;;;;;;5155365;27;20042;-81
2022/08/14 11:52:56;;;;;;;5.53;3.85;;;29.40;54.30;;;;;;5155831;27;20125;-78
2022/08/14 11:55:25;;;;;;;6.75;4.05;;;29.50;54.20;;;;;;5136816;27;20053;-77
2022/08/14 11:58:03;;;;;;;5.15;3.78;;;29.50;54.00;;;;;;5155400;27;20075;-79
2022/08/14 12:00:29;;;;;;;7.32;4.03;;;29.40;54.10;;;;;;5155089;27;20546;-79
2022/08/14 12:02:57;;;;;;;6.25;4.43;;;29.50;53.80;;;;;;5155363;27;20043;-80
2022/08/14 12:05:37;;;;;;;5.75;4.10;;;29.40;54.20;;;;;;5129304;27;20050;-76
2022/08/14 12:08:06;;;;;;;6.45;3.97;;;29.50;54.00;;;;;;5134541;27;20046;-74
2022/08/14 12:10:36;;;;;;;5.20;4.13;;;29.40;53.60;;;;;;5134185;27;20043;-77
2022/08/14 12:13:20;;;;;;;6.72;4.00;;;29.40;53.40;;;;;;5134638;27;20102;-76
2022/08/14 12:15:59;;;;;;;5.50;4.32;;;29.40;53.60;;;;;;5134508;27;20047;-76
2022/08/14 12:18:39;;;;;;;7.07;3.70;;;29.30;53.80;;;;;;5134158;27;20143;-78
2022/08/14 12:21:16;;;;;;;6.95;4.10;;;29.30;54.00;;;;;;5134525;27;20050;-77
2022/08/14 12:23:44;;;;;;;7.82;4.25;;;29.40;53.90;;;;;;5116158;27;20051;-79
2022/08/14 12:26:19;;;;;;;5.68;3.83;;;29.40;53.60;;;;;;5111955;28;20062;-77
2022/08/14 12:28:50;;;;;;;4.68;3.58;;;29.40;54.00;;;;;;5113907;28;20131;-76
2022/08/14 12:31:20;;;;;;;5.70;3.70;;;29.40;53.80;;;;;;5113713;28;20053;-77
2022/08/14 12:34:00;;;;;;;4.90;3.65;;;29.50;53.80;;;;;;5113553;28;20094;-77
2022/08/14 12:36:29;;;;;;;4.85;3.85;;;29.50;54.20;;;;;;5112661;28;20443;-80
2022/08/14 12:38:59;;;;;;;6.28;3.80;;;29.50;54.10;;;;;;5113305;28;20036;-71
2022/08/14 12:41:34;;;;;;;5.15;3.80;;;29.60;53.80;;;;;;5113084;28;20051;-71
2022/08/14 12:44:03;;;;;;;5.00;3.78;;;29.50;53.50;;;;;;5113013;28;20539;-69
2022/08/14 12:46:36;;;;;;;7.55;3.70;;;29.50;53.10;;;;;;5112986;28;20039;-70
2022/08/14 12:49:12;;;;;;;5.80;3.25;;;29.50;53.30;;;;;;5113213;28;20143;-70
2022/08/14 12:51:38;;;;;;;6.35;3.78;;;29.40;53.60;;;;;;5112823;28;20043;-70
2022/08/14 12:54:16;;;;;;;5.55;3.75;;;29.50;53.80;;;;;;5112916;28;20040;-69
2022/08/14 12:56:44;;;;;;;5.32;3.55;;;29.60;53.80;;;;;;5112783;28;20051;-69
2022/08/14 12:59:10;;;;;;;8.07;3.90;;;29.60;53.10;;;;;;5113021;28;20039;-70
2022/08/14 13:01:36;;;;;;;5.72;3.65;;;29.70;53.00;;;;;;5112857;28;20047;-71
2022/08/14 13:04:09;;;;;;;7.60;3.90;;;29.70;52.70;;;;;;5113029;28;20063;-71
2022/08/14 13:06:36;;;;;;;6.03;3.92;;;29.70;52.70;;;;;;5112988;28;20043;-70
2022/08/14 13:09:04;;;;;;;6.40;3.80;;;29.70;52.50;;;;;;5111682;28;20051;-72